Friday, January 18, 2019, 2:49 AM EST
Back to Local

KHWV, Shirley Brookhaven Airport

Location: Shirley, NY, United States Lat: 40.817
Local Time: 2:49 AM EST ( 7:49 GMT) Lon: -72.867
Time Zone: US/Eastern Elev: 82 ft

Show me the last for .
Show Decoded

2019-01-18 02:09 METAR KHWV 180709Z AUTO VRB03KT 1SM -SN BR FEW009 OVC013 M03/M05 A3020 RMK AO2
                 P0001 T10331050 =
2019-01-18 01:56 METAR KHWV 180656Z AUTO 03003KT 1 1/4SM -SN BR OVC016 M03/M05 A3021 RMK AO2
                 SLP230 P0001 T10331050 =
2019-01-18 01:29 METAR KHWV 180629Z AUTO 01003KT 1 1/2SM -SN OVC024 M03/M07 A3021 RMK AO2 P0000
                 T10331067 =
2019-01-18 01:19 METAR KHWV 180619Z AUTO 00000KT 2 1/2SM -SN OVC028 M03/M07 A3022 RMK AO2 P0000
                 T10281072 =
2019-01-18 00:56 METAR KHWV 180556Z AUTO VRB03KT 5SM -SN OVC032 M02/M08 A3022 RMK AO2 SNB39
                 SLP233 P0000 60000 T10221083 11022 21044 58025 =
2019-01-17 23:56 METAR KHWV 180456Z AUTO 00000KT 10SM BKN070 OVC090 M03/M11 A3025 RMK AO2 SLP244
                 T10281106 400061061 =
2019-01-17 22:56 METAR KHWV 180356Z AUTO 00000KT 10SM OVC100 M03/M12 A3027 RMK AO2 SLP251
                 T10281117 =
2019-01-17 21:56 METAR KHWV 180256Z AUTO 03004KT 10SM CLR M04/M14 A3029 RMK AO2 SLP258 T10391144
                 56014 =
2019-01-17 20:56 METAR KHWV 180156Z AUTO 02003KT 10SM CLR M04/M15 A3031 RMK AO2 SLP263 T10391150
                 =
2019-01-17 19:56 METAR KHWV 180056Z AUTO VRB03KT 10SM CLR M04/M15 A3031 RMK AO2 SLP265 T10391150
                 =
2019-01-17 18:56 METAR KHWV 172356Z AUTO 00000KT 10SM CLR M03/M15 A3033 RMK AO2 SLP272 T10281150
                 11011 21028 56002 =
2019-01-17 17:56 METAR KHWV 172256Z AUTO 00000KT 10SM FEW120 M03/M16 A3034 RMK AO2 SLP274
                 T10281161 =
2019-01-17 16:56 METAR KHWV 172156Z AUTO 14005KT 10SM CLR M02/M16 A3032 RMK AO2 SLP267 T10221161
                 =
2019-01-17 15:56 METAR KHWV 172056Z AUTO 10003KT 10SM SCT120 M02/M17 A3034 RMK AO2 SLP274
                 T10171172 56010 =
2019-01-17 14:56 METAR KHWV 171956Z AUTO 00000KT 10SM CLR M01/M17 A3035 RMK AO2 SLP277 T10111172
                 =
2019-01-17 13:56 METAR KHWV 171856Z AUTO VRB06KT 10SM CLR M01/M17 A3035 RMK AO2 SLP278 T10111167
                 =
2019-01-17 12:56 METAR KHWV 171756Z AUTO 34007KT 10SM CLR M01/M16 A3037 RMK AO2 SLP284 T10111161
                 11006 21061 58017 =
2019-01-17 11:56 METAR KHWV 171656Z AUTO 34009KT 310V010 10SM CLR M02/M16 A3040 RMK AO2 SLP294
                 T10171156 =
2019-01-17 10:56 METAR KHWV 171556Z AUTO 36007KT 10SM CLR M02/M17 A3042 RMK AO2 SLP304 T10221167
                 =
2019-01-17 09:56 METAR KHWV 171456Z AUTO 36012G18KT 10SM CLR M03/M16 A3042 RMK AO2 SLP301
                 T10281156 51017 =
2019-01-17 08:56 METAR KHWV 171356Z AUTO 01008KT 10SM CLR M03/M12 A3041 RMK AO2 SLP298 T10331122
                 =
2019-01-17 07:56 METAR KHWV 171256Z AUTO 00000KT 10SM CLR M05/M12 A3039 RMK AO2 SLP292 T10501117
                 =
2019-01-17 06:56 METAR KHWV 171156Z AUTO 33004KT 10SM CLR M06/M12 A3037 RMK AO2 SLP284 T10561117
                 11006 21056 53023 =
2019-01-17 05:56 METAR KHWV 171056Z AUTO 32004KT 10SM CLR M05/M12 A3034 RMK AO2 SLP275 T10501122
                 =
2019-01-17 04:56 METAR KHWV 170956Z AUTO 33005KT 10SM CLR M04/M12 A3032 RMK AO2 SLP267 T10391122
                 =
2019-01-17 03:56 METAR KHWV 170856Z AUTO 35011KT 10SM CLR M03/M13 A3030 RMK AO2 SLP261 T10281128
                 51024 =
2019-01-17 02:56 METAR KHWV 170756Z AUTO 34007KT 10SM CLR M02/M12 A3028 RMK AO2 SLP255 T10221122
                 =

Support USWX by starting your Amazon purchase here.